Pleasant View, Illinois
Current Conditions -  °F | °C
As of 7:15 PM on Tuesday 21 Oct 2014 (Local Time) from KMQB Reporting Station
Clear Clear  
Wind Chill: 44°   Ceiling: Unl
Heat Index: 48°   Visibility: 10mi
Dew Point: 38°   Wind: 7mph
Humidity: 69%   Direction: 60°ENE
Pressure: 30.2"   Gusts: NA
Location:  40.1451°N, 90.5648°W
Report Text: KMQB 220015Z AUTO 06006KT 10SM CLR 09/03 A3020 RMK AO2 T00870033
Loading
Personal Weather Stations






























Interactive Weather Map
Tropical Storm Tracking
New forecast layout! Learn more

10-Day Weather Forecast

Advertisements
Track Severe Weather on mobile